Aérodrome :
LOGIN :

S'inscrire | Disclaimer

   EN    FR    IT 

 










Légende :    VFR   VFR Marginal   IFR   IFR Intensif   IFR Très Intensif
Visi : 
Plafond : 
>= 8 km
>= 3000ft
5 à 8 km
1000 à 3000 ft
1500m à 5 km
500 à 1000 ft
800 à 1500m
200 à 500 ft
< 800m
< 200 ft
Symboles :   Orages  Brouillard  Fortes neiges  Fortes précipitations  Vent > 20 kt
SIGMETs :   Divers  Orages  Givrage  Turbulence  Onde Orograph.  Cendres Volcan.







- Altitude de l'aérodrome : 3 ft
- Code IATA : DHR


EHKD - Den Helder De Kooy

DERNIER METAR :
  • 222127Z AUTO 11010KT 9999 NCD 08/04 Q1014 BLU

METARs EXPIRÉS :
  • 222125Z AUTO 11010KT 9999 FEW180 08/03 Q1014 BLU 10010KT CAVOK
  • 222055Z AUTO 11009KT 080V140 9999 OVC079 08/03 Q1014 BLU 10010KT CAVOK
  • 222025Z AUTO 10007KT 9999 NCD 08/02 Q1014 BLU 10010KT CAVOK
  • 221955Z AUTO 10007KT 9999 BKN077 BKN390 09/02 Q1014 BLU 10010KT CAVOK
  • 221925Z AUTO 09006KT 9999 OVC078 09/02 Q1013 BLU 10010KT CAVOK
  • 221855Z AUTO 10007KT 9999 BKN076 09/03 Q1013 BLU 10010KT CAVOK

TAF TAF EHKD
Valide du 22 à 18h jusqu'au 23 à 06h UTC


221711Z 2218/2306 10010KT CAVOK CNL 222130Z
Pas de NOTAMs connus pour ce terrain.



MET'MAP, la Météo Aéronautique d'un coup d'oeil ! - Copyright ORBIFLY Décembre 2007 - Disclaimer

ORBIFLY MET'MAP TEAM :

Programmation & Développement : Alexandra Zaïnal
Conception & Développement : Baudouin d'Aumeries
Co-Programmation & Développement : Marc-Olivier Méhu
Soutien technique & logistique : Manuel Goepfert

Contact : metmap@orbifly.com




SOURCES & CREDITS :

   NOAA